Time;durP1;ratioP1;P1;durP2;ratioP2;P2;SDS_P1;SDS_P2;PMS_P1;PMS_P2;Temp;Humidity;BMP_temperature;BMP_pressure;BME280_temperature;BME280_humidity;BME280_pressure;Samples;Min_cycle;Max_cycle;Signal;HPM_P1;HPM_P2
2021/11/10 00:01:23;;;;;;;18.05;9.05;;;;;;;4.94;100.00;102441.06;5240647;28;20083;-68
2021/11/10 00:03:54;;;;;;;18.63;8.65;;;;;;;4.98;100.00;102437.47;5242845;28;20039;-68
2021/11/10 00:06:26;;;;;;;15.60;9.10;;;;;;;4.97;100.00;102434.94;5243965;28;20029;-68
2021/11/10 00:08:57;;;;;;;16.35;8.80;;;;;;;4.98;100.00;102439.22;5245409;28;20031;-68
2021/11/10 00:11:29;;;;;;;19.90;9.77;;;;;;;4.93;100.00;102434.19;5242242;28;20368;-68
2021/11/10 00:14:00;;;;;;;16.83;8.00;;;;;;;4.94;100.00;102433.28;5242755;28;20033;-68
2021/11/10 00:16:31;;;;;;;18.17;9.02;;;;;;;4.89;100.00;102437.81;5242609;28;20032;-68
2021/11/10 00:19:03;;;;;;;16.90;8.45;;;;;;;4.88;100.00;102433.50;5243255;28;20505;-68
2021/11/10 00:21:35;;;;;;;14.40;8.25;;;;;;;4.82;100.00;102425.94;5244110;28;20029;-68
2021/11/10 00:24:07;;;;;;;15.10;8.65;;;;;;;4.81;100.00;102429.41;5244661;28;20360;-68
2021/11/10 00:26:39;;;;;;;19.05;8.80;;;;;;;4.81;100.00;102432.00;5243689;28;20525;-68
2021/11/10 00:29:10;;;;;;;17.88;8.73;;;;;;;4.81;100.00;102429.41;5243094;28;20284;-68
2021/11/10 00:31:42;;;;;;;16.38;8.50;;;;;;;4.81;100.00;102427.69;5243499;28;20094;-68
2021/11/10 00:34:13;;;;;;;18.77;8.93;;;;;;;4.69;100.00;102417.72;5243168;28;20399;-68
2021/11/10 00:36:45;;;;;;;16.83;8.85;;;;;;;4.69;100.00;102416.88;5243964;28;20021;-67
2021/11/10 00:39:17;;;;;;;13.95;8.70;;;;;;;4.66;100.00;102427.34;5242388;28;20021;-68
2021/11/10 00:41:48;;;;;;;17.13;9.15;;;;;;;4.69;100.00;102416.88;5243787;28;20087;-68
2021/11/10 00:44:19;;;;;;;18.45;9.02;;;;;;;4.74;100.00;102404.59;5242357;28;20084;-68
2021/11/10 00:46:50;;;;;;;16.83;8.23;;;;;;;4.73;100.00;102416.69;5243385;28;20068;-68
2021/11/10 00:49:22;;;;;;;17.73;9.00;;;;;;;4.75;100.00;102398.50;5243917;28;20032;-68
2021/11/10 00:51:53;;;;;;;20.77;9.55;;;;;;;4.72;100.00;102390.81;5242097;28;20029;-68
2021/11/10 00:54:25;;;;;;;17.92;9.35;;;;;;;4.69;100.00;102380.53;5242008;28;20040;-68
2021/11/10 00:56:57;;;;;;;21.52;9.63;;;;;;;4.61;100.00;102375.59;5241402;28;20483;-68
2021/11/10 00:59:28;;;;;;;17.50;8.38;;;;;;;4.59;100.00;102378.25;5242332;28;20075;-68
2021/11/10 01:01:59;;;;;;;19.52;9.02;;;;;;;4.56;100.00;102373.19;5242409;28;20108;-68
2021/11/10 01:04:31;;;;;;;15.65;8.85;;;;;;;4.52;100.00;102373.34;5242757;28;20033;-68
2021/11/10 01:07:03;;;;;;;15.77;9.00;;;;;;;4.53;100.00;102380.22;5241336;28;20020;-69
2021/11/10 01:09:45;;;;;;;14.68;9.07;;;;;;;4.47;100.00;102373.50;5241586;28;20033;-68
2021/11/10 01:12:16;;;;;;;13.27;8.43;;;;;;;4.39;100.00;102375.50;5242097;28;20031;-68
2021/11/10 01:14:47;;;;;;;15.75;8.45;;;;;;;4.40;100.00;102374.63;5240614;28;20013;-68
2021/11/10 01:17:19;;;;;;;16.60;8.85;;;;;;;4.41;100.00;102367.69;5241949;28;20041;-68
2021/11/10 01:19:50;;;;;;;15.02;8.70;;;;;;;4.29;100.00;102369.78;5242768;28;20025;-68
2021/11/10 01:22:22;;;;;;;13.15;7.95;;;;;;;4.35;100.00;102376.50;5241631;28;20040;-68
2021/11/10 01:24:53;;;;;;;16.38;8.88;;;;;;;4.35;100.00;102372.16;5241773;28;20056;-68
2021/11/10 01:27:25;;;;;;;19.50;9.05;;;;;;;4.32;100.00;102371.44;5241994;28;20029;-68
2021/11/10 01:29:56;;;;;;;20.52;10.07;;;;;;;4.31;100.00;102377.50;5240496;28;20025;-68
2021/11/10 01:32:27;;;;;;;21.55;9.52;;;;;;;4.30;100.00;102374.06;5241624;28;20033;-68
2021/11/10 01:34:59;;;;;;;21.00;10.32;;;;;;;4.28;100.00;102373.28;5245191;28;20409;-68
2021/11/10 01:37:30;;;;;;;16.33;10.48;;;;;;;4.32;100.00;102374.03;5243509;28;20033;-68
2021/11/10 01:40:03;;;;;;;20.70;9.55;;;;;;;4.37;100.00;102372.97;5243332;28;20104;-68
2021/11/10 01:42:41;;;;;;;18.13;9.07;;;;;;;4.35;100.00;102359.19;5243214;28;20116;-68
2021/11/10 01:45:15;;;;;;;19.60;9.82;;;;;;;4.29;100.00;102364.59;5241707;28;20025;-68
2021/11/10 01:47:47;;;;;;;17.10;8.70;;;;;;;4.25;100.00;102362.16;5243128;28;20025;-68
2021/11/10 01:50:18;;;;;;;19.42;9.85;;;;;;;4.27;100.00;102363.78;5240976;28;20037;-68
2021/11/10 01:52:50;;;;;;;14.18;8.40;;;;;;;4.22;100.00;102362.28;5242984;28;20176;-68
2021/11/10 01:55:21;;;;;;;19.70;8.98;;;;;;;4.18;100.00;102350.31;5242238;28;20029;-68
2021/11/10 01:57:53;;;;;;;22.92;9.35;;;;;;;4.10;100.00;102338.44;5241828;28;20042;-68
2021/11/10 02:00:29;;;;;;;17.52;9.10;;;;;;;4.13;100.00;102333.16;5240617;28;20513;-67
2021/11/10 02:03:01;;;;;;;16.90;9.15;;;;;;;4.00;100.00;102337.03;5240222;28;20574;-68
2021/11/10 02:05:33;;;;;;;16.73;9.75;;;;;;;4.04;100.00;102350.75;5241738;28;20477;-68
2021/11/10 02:08:05;;;;;;;15.73;9.00;;;;;;;4.03;100.00;102346.47;5241419;28;20037;-68
2021/11/10 02:10:36;;;;;;;19.05;9.68;;;;;;;4.04;100.00;102350.75;5241293;28;20036;-68
2021/11/10 02:13:07;;;;;;;20.27;10.13;;;;;;;4.13;100.00;102363.44;5239034;28;20064;-68
2021/11/10 02:15:39;;;;;;;15.90;10.00;;;;;;;4.09;100.00;102351.44;5241318;28;20057;-68
2021/11/10 02:18:11;;;;;;;18.95;9.85;;;;;;;4.08;100.00;102344.56;5241995;28;20078;-68
2021/11/10 02:20:47;;;;;;;15.85;9.23;;;;;;;4.06;100.00;102344.63;5239325;28;20491;-68
2021/11/10 02:23:19;;;;;;;15.70;9.18;;;;;;;4.03;100.00;102341.28;5242133;28;20071;-68
2021/11/10 02:25:57;;;;;;;20.10;9.93;;;;;;;4.03;100.00;102343.88;5241376;28;20047;-68
2021/11/10 02:28:28;;;;;;;14.95;9.90;;;;;;;3.99;100.00;102347.47;5241675;28;20040;-68
2021/11/10 02:30:59;;;;;;;19.80;10.13;;;;;;;3.99;100.00;102350.06;5238547;28;20402;-68
2021/11/10 02:33:31;;;;;;;19.17;10.45;;;;;;;4.03;100.00;102342.13;5240445;28;20128;-68
2021/11/10 02:36:06;;;;;;;26.08;11.95;;;;;;;4.02;100.00;102335.25;5240896;28;20080;-68
2021/11/10 02:38:38;;;;;;;23.45;12.20;;;;;;;4.02;100.00;102337.00;5240777;28;20565;-68
2021/11/10 02:41:10;;;;;;;19.05;11.48;;;;;;;3.96;100.00;102344.97;5241722;28;20108;-68
2021/11/10 02:43:41;;;;;;;17.63;11.10;;;;;;;3.96;100.00;102338.03;5241764;28;20132;-68
2021/11/10 02:46:12;;;;;;;18.17;9.95;;;;;;;3.92;100.00;102338.22;5239850;28;20033;-68
2021/11/10 02:48:44;;;;;;;17.35;10.50;;;;;;;3.98;100.00;102349.22;5240626;28;20130;-68
2021/11/10 02:51:15;;;;;;;21.77;10.85;;;;;;;3.96;100.00;102334.59;5243234;28;20068;-68
2021/11/10 02:53:47;;;;;;;17.52;10.55;;;;;;;3.93;100.00;102335.56;5242124;28;20128;-68
2021/11/10 02:56:19;;;;;;;18.83;10.77;;;;;;;3.92;100.00;102340.78;5240560;28;20048;-68
2021/11/10 02:58:50;;;;;;;20.27;10.52;;;;;;;3.89;100.00;102333.97;5241269;28;20041;-68
2021/11/10 03:01:21;;;;;;;22.02;10.52;;;;;;;3.91;100.00;102342.53;5240313;28;20033;-68
2021/11/10 03:03:53;;;;;;;17.98;11.32;;;;;;;3.90;100.00;102335.63;5238477;28;20036;-68
2021/11/10 03:06:24;;;;;;;21.10;10.88;;;;;;;3.87;100.00;102335.78;5242786;28;20036;-68
2021/11/10 03:08:55;;;;;;;17.10;10.73;;;;;;;3.84;100.00;102331.53;5241975;28;20037;-68
2021/11/10 03:11:30;;;;;;;18.17;10.23;;;;;;;3.82;100.00;102325.53;5241643;28;20053;-68
2021/11/10 03:14:02;;;;;;;18.98;10.60;;;;;;;3.73;100.00;102319.81;5243187;28;20033;-68
2021/11/10 03:16:33;;;;;;;18.55;10.82;;;;;;;3.64;100.00;102320.97;5241423;28;20063;-68
2021/11/10 03:19:04;;;;;;;20.33;11.60;;;;;;;3.67;100.00;102326.03;5240362;28;20071;-68
2021/11/10 03:21:37;;;;;;;19.70;11.52;;;;;;;3.64;100.00;102329.59;5239814;28;20127;-68
2021/11/10 03:24:08;;;;;;;27.50;12.50;;;;;;;3.65;100.00;102331.28;5238342;28;20037;-68
2021/11/10 03:26:40;;;;;;;17.20;11.50;;;;;;;3.59;100.00;102335.78;5241424;28;20483;-68
2021/11/10 03:29:11;;;;;;;20.52;12.00;;;;;;;3.61;100.00;102341.78;5241910;28;20041;-68
2021/11/10 03:31:43;;;;;;;24.85;13.52;;;;;;;3.63;100.00;102338.22;5238624;28;20029;-67
2021/11/10 03:34:15;;;;;;;23.98;14.07;;;;;;;3.67;100.00;102349.34;5239758;28;20033;-68
2021/11/10 03:36:46;;;;;;;19.13;12.80;;;;;;;3.70;100.00;102354.44;5240360;28;20021;-68
2021/11/10 03:39:18;;;;;;;24.30;13.40;;;;;;;3.62;100.00;102348.66;5239042;28;20556;-68
2021/11/10 03:41:50;;;;;;;25.30;13.25;;;;;;;3.63;100.00;102352.94;5239635;28;20072;-68
2021/11/10 03:44:21;;;;;;;24.98;13.93;;;;;;;3.71;100.00;102355.28;5240824;28;20085;-68
2021/11/10 03:46:53;;;;;;;27.77;14.23;;;;;;;3.75;100.00;102359.47;5240897;28;20037;-68
2021/11/10 03:49:25;;;;;;;27.60;15.23;;;;;;;3.71;100.00;102361.31;5241814;28;20089;-68
2021/11/10 03:51:57;;;;;;;25.40;15.00;;;;;;;3.72;100.00;102360.44;5239436;28;20376;-68
2021/11/10 03:54:28;;;;;;;27.95;15.43;;;;;;;3.80;100.00;102370.56;5240541;28;20045;-68
2021/11/10 03:56:59;;;;;;;23.00;13.98;;;;;;;3.79;100.00;102364.53;5239820;28;20149;-68
2021/11/10 03:59:30;;;;;;;23.67;14.10;;;;;;;3.80;100.00;102353.25;5239521;28;20029;-68
2021/11/10 04:02:03;;;;;;;26.33;14.35;;;;;;;3.81;100.00;102369.66;5240248;28;20068;-68
2021/11/10 04:04:34;;;;;;;25.70;14.88;;;;;;;3.78;100.00;102373.19;5239887;28;20033;-68
2021/11/10 04:07:06;;;;;;;21.52;13.32;;;;;;;3.82;100.00;102360.97;5240286;28;20064;-68
2021/11/10 04:09:37;;;;;;;23.05;13.43;;;;;;;3.83;100.00;102358.34;5241134;28;20045;-68
2021/11/10 04:12:09;;;;;;;22.63;13.38;;;;;;;3.84;100.00;102365.22;5240161;28;20021;-67
2021/11/10 04:14:40;;;;;;;24.42;13.85;;;;;;;3.85;100.00;102363.47;5240769;28;20041;-68
2021/11/10 04:17:11;;;;;;;23.20;13.95;;;;;;;3.81;100.00;102365.31;5237726;28;20571;-68
2021/11/10 04:19:43;;;;;;;19.40;12.75;;;;;;;3.88;100.00;102365.97;5242983;28;20030;-68
2021/11/10 04:22:14;;;;;;;25.10;12.52;;;;;;;3.87;100.00;102370.31;5240023;28;20043;-68
2021/11/10 04:24:46;;;;;;;23.35;13.32;;;;;;;3.85;100.00;102374.69;5238635;28;20064;-68
2021/11/10 04:27:19;;;;;;;24.92;13.02;;;;;;;3.85;100.00;102379.88;5241571;28;20025;-68
2021/11/10 04:29:50;;;;;;;22.52;13.93;;;;;;;3.86;100.00;102379.00;5242312;28;20068;-68
2021/11/10 04:32:22;;;;;;;27.05;13.80;;;;;;;3.81;100.00;102373.09;5242413;28;20067;-68
2021/11/10 04:34:53;;;;;;;27.13;14.65;;;;;;;3.85;100.00;102385.06;5244480;28;20416;-68
2021/11/10 04:37:25;;;;;;;26.83;14.35;;;;;;;3.82;100.00;102385.16;5243332;28;20123;-68
2021/11/10 04:39:56;;;;;;;21.77;13.38;;;;;;;3.88;100.00;102384.97;5240996;28;20017;-68
2021/11/10 04:42:28;;;;;;;27.05;13.88;;;;;;;3.78;100.00;102365.41;5244222;28;20043;-68
2021/11/10 04:45:06;;;;;;;21.25;14.52;;;;;;;3.85;100.00;102373.84;5243111;28;20027;-68
2021/11/10 04:47:38;;;;;;;18.75;12.88;;;;;;;3.83;100.00;102367.88;5242690;28;20053;-68
2021/11/10 04:50:09;;;;;;;23.17;13.93;;;;;;;3.77;100.00;102363.72;5242967;28;20155;-68
2021/11/10 04:52:41;;;;;;;24.30;13.45;;;;;;;3.84;100.00;102373.00;5242920;28;20570;-68
2021/11/10 04:55:12;;;;;;;25.50;13.43;;;;;;;3.79;100.00;102363.66;5243370;28;20033;-67
2021/11/10 04:57:44;;;;;;;25.48;14.02;;;;;;;3.78;100.00;102373.19;5242214;28;20506;-68
2021/11/10 05:00:16;;;;;;;24.00;14.25;;;;;;;3.81;100.00;102369.66;5242410;28;20071;-68
2021/11/10 05:02:47;;;;;;;23.92;12.85;;;;;;;3.77;100.00;102360.28;5243658;28;20128;-68
2021/11/10 05:05:20;;;;;;;22.67;13.43;;;;;;;3.78;100.00;102368.00;5243155;28;20312;-68
2021/11/10 05:07:51;;;;;;;25.45;12.25;;;;;;;3.77;100.00;102368.91;5239385;28;20154;-68
2021/11/10 05:10:22;;;;;;;20.42;12.93;;;;;;;3.77;100.00;102365.47;5241466;28;20096;-68
2021/11/10 05:12:54;;;;;;;24.45;12.80;;;;;;;3.78;100.00;102362.81;5243149;28;20386;-68
2021/11/10 05:15:25;;;;;;;19.50;12.30;;;;;;;3.69;100.00;102370.91;5241258;28;20037;-68
2021/11/10 05:17:56;;;;;;;20.98;12.40;;;;;;;3.64;100.00;102365.88;5243630;28;20045;-68
2021/11/10 05:20:28;;;;;;;20.90;12.80;;;;;;;3.72;100.00;102370.81;5244443;28;20033;-68
2021/11/10 05:22:59;;;;;;;23.23;13.23;;;;;;;3.78;100.00;102368.00;5245216;28;20056;-68
2021/11/10 05:25:30;;;;;;;25.30;13.57;;;;;;;3.66;100.00;102356.28;5241990;28;20041;-68
2021/11/10 05:28:02;;;;;;;21.40;12.15;;;;;;;3.66;100.00;102361.47;5244264;28;20025;-68
2021/11/10 05:30:36;;;;;;;22.80;12.95;;;;;;;3.63;100.00;102374.50;5242037;28;20084;-68
2021/11/10 05:33:08;;;;;;;22.30;12.82;;;;;;;3.60;100.00;102372.03;5243219;28;20038;-68
2021/11/10 05:35:39;;;;;;;22.02;11.45;;;;;;;3.60;100.00;102387.59;5239237;28;20044;-68
2021/11/10 05:38:11;;;;;;;20.70;12.35;;;;;;;3.54;100.00;102387.78;5240386;28;20039;-68
2021/11/10 05:40:42;;;;;;;22.50;12.43;;;;;;;3.58;100.00;102370.38;5243941;28;20067;-68
2021/11/10 05:43:13;;;;;;;19.42;12.27;;;;;;;3.55;100.00;102362.69;5241822;28;20041;-68
2021/11/10 05:45:45;;;;;;;22.77;13.43;;;;;;;3.44;100.00;102363.03;5242913;28;20506;-68
2021/11/10 05:48:16;;;;;;;20.27;11.43;;;;;;;3.47;100.00;102352.56;5241288;28;20029;-69
2021/11/10 05:50:47;;;;;;;21.85;12.52;;;;;;;3.44;100.00;102349.22;5240647;28;20407;-68
2021/11/10 05:53:19;;;;;;;20.17;11.93;;;;;;;3.37;100.00;102352.03;5243288;28;20110;-68
2021/11/10 05:55:53;;;;;;;18.90;11.77;;;;;;;3.35;100.00;102350.38;5243816;28;20029;-68
2021/11/10 05:58:28;;;;;;;18.25;11.98;;;;;;;3.34;100.00;102357.28;5242614;28;20037;-68
2021/11/10 06:01:00;;;;;;;20.00;11.23;;;;;;;3.27;100.00;102354.94;5242700;28;20036;-68
2021/11/10 06:03:32;;;;;;;17.58;11.55;;;;;;;3.21;100.00;102342.16;5241605;28;20071;-68
2021/11/10 06:06:03;;;;;;;20.88;12.52;;;;;;;3.26;100.00;102338.56;5243331;28;20025;-68
2021/11/10 06:08:37;;;;;;;21.15;12.57;;;;;;;3.25;100.00;102348.94;5241881;28;20037;-68
2021/11/10 06:11:10;;;;;;;24.52;12.57;;;;;;;3.26;100.00;102350.63;5243092;28;20104;-68
2021/11/10 06:13:41;;;;;;;20.95;13.02;;;;;;;3.26;100.00;102353.22;5241727;28;20041;-68
2021/11/10 06:16:12;;;;;;;20.55;12.10;;;;;;;3.27;100.00;102347.16;5240410;28;20451;-68
2021/11/10 06:18:45;;;;;;;24.65;13.40;;;;;;;3.26;100.00;102353.22;5241723;28;20501;-68
2021/11/10 06:21:17;;;;;;;24.13;14.18;;;;;;;3.31;100.00;102362.56;5240474;28;20505;-68
2021/11/10 06:23:48;;;;;;;21.45;13.30;;;;;;;3.29;100.00;102353.97;5238967;28;20116;-68
2021/11/10 06:26:20;;;;;;;27.60;15.23;;;;;;;3.33;100.00;102349.56;5241564;28;20087;-68
2021/11/10 06:28:51;;;;;;;19.80;13.55;;;;;;;3.34;100.00;102346.09;5241701;28;20087;-68
2021/11/10 06:31:22;;;;;;;22.70;14.18;;;;;;;3.34;100.00;102353.84;5240971;28;20029;-68
2021/11/10 06:33:54;;;;;;;22.77;14.02;;;;;;;3.38;100.00;102358.06;5239120;28;20045;-68
2021/11/10 06:36:26;;;;;;;25.02;14.30;;;;;;;3.37;100.00;102356.34;5240932;28;20030;-68
2021/11/10 06:38:57;;;;;;;27.13;14.18;;;;;;;3.38;100.00;102348.53;5242407;28;20031;-68
2021/11/10 06:41:29;;;;;;;25.33;14.02;;;;;;;3.40;100.00;102354.50;5241871;28;20041;-68
2021/11/10 06:44:02;;;;;;;24.38;13.40;;;;;;;3.36;100.00;102346.88;5240984;28;20056;-68
2021/11/10 06:46:34;;;;;;;26.40;14.07;;;;;;;3.41;100.00;102337.25;5239291;28;20033;-68
2021/11/10 06:49:05;;;;;;;25.77;14.57;;;;;;;3.38;100.00;102348.53;5241988;28;20036;-68
2021/11/10 06:51:38;;;;;;;25.08;14.63;;;;;;;3.39;100.00;102347.63;5241392;28;20029;-68
2021/11/10 06:54:10;;;;;;;21.98;13.48;;;;;;;3.37;100.00;102327.84;5241974;28;20094;-67
2021/11/10 06:56:41;;;;;;;30.75;15.05;;;;;;;3.27;100.00;102316.09;5239935;28;20418;-68
2021/11/10 06:59:13;;;;;;;29.38;14.10;;;;;;;3.27;100.00;102334.22;5241402;28;20402;-68
2021/11/10 07:01:45;;;;;;;26.92;13.68;;;;;;;3.27;100.00;102336.81;5240549;28;20041;-68
2021/11/10 07:04:16;;;;;;;23.08;13.70;;;;;;;3.24;100.00;102357.59;5238060;28;20068;-68
2021/11/10 07:06:47;;;;;;;21.73;14.02;;;;;;;3.25;100.00;102370.50;5239853;28;20033;-67
2021/11/10 07:09:19;;;;;;;24.95;15.05;;;;;;;3.26;100.00;102366.16;5242015;28;20045;-68
2021/11/10 07:11:50;;;;;;;23.55;14.35;;;;;;;3.29;100.00;102372.09;5238503;28;20049;-69
2021/11/10 07:14:23;;;;;;;23.85;14.00;;;;;;;3.26;100.00;102367.03;5241246;28;20045;-68
2021/11/10 07:16:54;;;;;;;22.65;14.52;;;;;;;3.33;100.00;102358.19;5240308;28;20045;-68
2021/11/10 07:19:26;;;;;;;22.45;15.00;;;;;;;3.34;100.00;102370.25;5238734;28;20037;-68
2021/11/10 07:21:57;;;;;;;24.92;14.32;;;;;;;3.35;100.00;102376.28;5239622;28;20037;-67
2021/11/10 07:24:29;;;;;;;29.17;14.68;;;;;;;3.36;100.00;102380.53;5239372;28;20381;-67
2021/11/10 07:27:01;;;;;;;21.65;14.10;;;;;;;3.33;100.00;102370.28;5238694;28;20036;-68
2021/11/10 07:29:32;;;;;;;25.58;14.25;;;;;;;3.36;100.00;102385.72;5242536;28;20037;-67
2021/11/10 07:32:04;;;;;;;23.70;13.98;;;;;;;3.40;100.00;102383.00;5239065;28;20017;-67
2021/11/10 07:34:35;;;;;;;22.33;14.68;;;;;;;3.44;100.00;102394.13;5237573;28;20124;-68
2021/11/10 07:37:08;;;;;;;27.27;14.45;;;;;;;3.48;100.00;102398.31;5238229;28;20102;-67
2021/11/10 07:39:42;;;;;;;25.08;13.80;;;;;;;3.52;100.00;102393.88;5241310;28;20037;-68
2021/11/10 07:42:13;;;;;;;27.77;15.18;;;;;;;3.52;100.00;102396.47;5238999;28;20040;-68
2021/11/10 07:44:44;;;;;;;24.42;14.30;;;;;;;3.55;100.00;102394.63;5236102;28;20030;-68
2021/11/10 07:47:18;;;;;;;24.83;14.18;;;;;;;3.59;100.00;102403.16;5237005;28;20554;-68
2021/11/10 07:49:52;;;;;;;26.95;14.75;;;;;;;3.61;100.00;102389.28;5231013;28;20494;-67
2021/11/10 07:52:23;;;;;;;26.88;15.00;;;;;;;3.62;100.00;102380.59;5237476;28;20080;-68
2021/11/10 07:54:54;;;;;;;30.85;14.85;;;;;;;3.65;100.00;102383.09;5237384;28;20399;-68
2021/11/10 07:57:26;;;;;;;26.60;15.40;;;;;;;3.69;100.00;102386.44;5238562;28;20032;-68
2021/11/10 07:59:57;;;;;;;27.48;15.48;;;;;;;3.73;100.00;102389.78;5239166;28;20440;-67
2021/11/10 08:02:28;;;;;;;24.40;14.88;;;;;;;3.77;100.00;102386.22;5240081;28;20475;-67
2021/11/10 08:05:00;;;;;;;25.17;15.80;;;;;;;3.77;100.00;102386.22;5242527;28;20411;-67
2021/11/10 08:07:32;;;;;;;28.60;16.65;;;;;;;3.84;100.00;102400.69;5226795;28;20026;-68
2021/11/10 08:10:04;;;;;;;34.80;16.58;;;;;;;3.86;100.00;102391.09;5243654;28;20044;-68
2021/11/10 08:12:37;;;;;;;28.80;17.05;;;;;;;3.90;100.00;102384.91;5241728;28;20546;-67
2021/11/10 08:15:12;;;;;;;28.95;17.15;;;;;;;4.02;100.00;102394.06;5240515;28;20075;-67
2021/11/10 08:17:43;;;;;;;27.80;16.25;;;;;;;3.98;100.00;102393.31;5242018;28;20029;-67
2021/11/10 08:20:17;;;;;;;29.02;15.93;;;;;;;4.04;100.00;102390.50;5240648;28;20079;-68
2021/11/10 08:22:48;;;;;;;29.50;16.48;;;;;;;4.08;100.00;102392.09;5241945;28;20445;-67
2021/11/10 08:25:20;;;;;;;25.58;16.23;;;;;;;4.15;100.00;102380.63;5241103;28;20033;-68
2021/11/10 08:27:54;;;;;;;26.17;16.65;;;;;;;4.18;100.00;102373.66;5240405;28;20037;-68
2021/11/10 08:30:25;;;;;;;29.42;17.85;;;;;;;4.14;100.00;102376.34;5241705;28;20148;-68
2021/11/10 08:32:57;;;;;;;29.80;17.05;;;;;;;4.24;100.00;102383.81;5239899;28;20445;-68
2021/11/10 08:35:28;;;;;;;26.75;16.45;;;;;;;4.30;100.00;102387.03;5240129;28;20039;-68
2021/11/10 08:38:00;;;;;;;28.77;17.85;;;;;;;4.38;100.00;102385.03;5239892;28;20125;-67
2021/11/10 08:40:32;;;;;;;33.63;20.35;;;;;;;4.45;100.00;102393.47;5241950;28;20083;-68
2021/11/10 08:43:04;;;;;;;29.17;17.00;;;;;;;4.48;100.00;102395.13;5240391;28;20039;-67
2021/11/10 08:45:36;;;;;;;33.95;18.17;;;;;;;4.56;100.00;102393.94;5239547;28;20390;-68
2021/11/10 08:48:07;;;;;;;32.42;19.02;;;;;;;4.55;100.00;102386.22;5240885;28;20037;-67
2021/11/10 08:50:42;;;;;;;30.33;18.02;;;;;;;4.69;100.00;102388.31;5244573;28;20109;-67
2021/11/10 08:53:22;;;;;;;27.25;17.83;;;;;;;4.78;100.00;102381.06;5245449;28;20124;-67
2021/11/10 08:55:56;;;;;;;28.85;18.63;;;;;;;4.80;100.00;102387.03;5241195;28;20037;-68
2021/11/10 08:58:27;;;;;;;30.05;17.85;;;;;;;4.80;100.00;102381.00;5239354;28;20482;-67
2021/11/10 09:00:59;;;;;;;33.78;18.05;;;;;;;5.00;100.00;102382.84;5240348;28;20021;-68
2021/11/10 09:03:30;;;;;;;30.90;17.73;;;;;;;5.05;100.00;102399.13;5239901;28;20033;-67
2021/11/10 09:06:02;;;;;;;27.42;17.52;;;;;;;5.16;100.00;102390.94;5240191;28;20106;-68
2021/11/10 09:08:34;;;;;;;31.67;18.17;;;;;;;5.21;100.00;102373.44;5242639;28;20044;-68
2021/11/10 09:11:05;;;;;;;34.45;18.60;;;;;;;5.31;100.00;102391.22;5242732;28;20372;-68
2021/11/10 09:13:36;;;;;;;30.52;18.17;;;;;;;5.43;100.00;102396.84;5238044;28;20095;-70
2021/11/10 09:16:08;;;;;;;30.63;16.63;;;;;;;5.38;100.00;102394.44;5242554;28;20481;-68
2021/11/10 09:18:40;;;;;;;33.00;17.90;;;;;;;5.43;100.00;102397.69;5241358;28;20033;-69
2021/11/10 09:21:11;;;;;;;28.80;17.35;;;;;;;5.51;100.00;102395.66;5242075;28;20021;-69
2021/11/10 09:23:42;;;;;;;28.05;16.70;;;;;;;5.58;100.00;102383.25;5240671;28;20078;-69
2021/11/10 09:26:14;;;;;;;28.25;16.65;;;;;;;5.62;100.00;102387.44;5240903;28;20029;-69
2021/11/10 09:28:45;;;;;;;29.48;16.77;;;;;;;5.70;100.00;102385.38;5242348;28;20390;-69
2021/11/10 09:31:17;;;;;;;22.77;16.02;;;;;;;5.69;100.00;102375.03;5241976;28;20049;-71
2021/11/10 09:33:52;;;;;;;28.73;15.90;;;;;;;5.77;100.00;102392.03;5240852;28;20041;-69
2021/11/10 09:36:23;;;;;;;25.52;15.95;;;;;;;5.81;100.00;102383.19;5241207;28;20039;-69
2021/11/10 09:38:55;;;;;;;23.25;16.30;;;;;;;5.95;100.00;102374.88;5243068;28;20475;-69
2021/11/10 09:41:27;;;;;;;30.23;17.45;;;;;;;5.99;100.00;102378.19;5241438;28;20028;-70
2021/11/10 09:43:59;;;;;;;25.52;17.13;;;;;;;6.10;100.00;102370.78;5240610;28;20025;-70
2021/11/10 09:46:34;;;;;;;25.65;15.48;;;;;;;6.20;100.00;102377.28;5241792;28;20553;-71
2021/11/10 09:49:06;;;;;;;28.60;16.40;;;;;;;6.28;100.00;102387.38;5220124;28;20033;-69
2021/11/10 09:51:42;;;;;;;30.85;16.40;;;;;;;6.34;100.00;102392.34;5242675;28;20047;-69
2021/11/10 09:54:15;;;;;;;26.17;16.25;;;;;;;6.31;100.00;102390.69;5240499;28;20045;-69
2021/11/10 09:56:46;;;;;;;27.77;15.98;;;;;;;6.46;100.00;102391.81;5242636;28;20127;-69
2021/11/10 09:59:18;;;;;;;25.77;15.25;;;;;;;6.50;100.00;102398.56;5243597;28;20124;-69
2021/11/10 10:01:49;;;;;;;26.27;16.33;;;;;;;6.53;100.00;102387.19;5242143;28;20029;-70
2021/11/10 10:04:21;;;;;;;25.00;16.67;;;;;;;6.61;100.00;102387.69;5239235;28;20059;-68
2021/11/10 10:06:53;;;;;;;27.92;16.13;;;;;;;6.78;100.00;102392.16;5241051;28;20061;-68
2021/11/10 10:09:25;;;;;;;23.00;14.90;;;;;;;6.88;100.00;102383.03;5241159;28;20443;-70
2021/11/10 10:11:56;;;;;;;29.25;16.38;;;;;;;7.02;100.00;102387.63;5240427;28;20028;-69
2021/11/10 10:14:28;;;;;;;26.05;16.33;;;;;;;7.14;100.00;102391.44;5239524;28;20083;-69
2021/11/10 10:17:08;;;;;;;24.55;15.43;;;;;;;7.35;100.00;102394.81;5242498;28;20059;-69
2021/11/10 10:19:42;;;;;;;28.10;16.08;;;;;;;7.40;100.00;102398.06;5239581;28;20037;-68
2021/11/10 10:22:18;;;;;;;24.25;15.13;;;;;;;7.52;100.00;102400.94;5241383;28;20120;-68
2021/11/10 10:24:52;;;;;;;22.80;15.20;;;;;;;7.55;100.00;102394.75;5242094;28;20052;-68
2021/11/10 10:27:29;;;;;;;22.85;15.38;;;;;;;7.60;100.00;102400.56;5242433;28;20544;-69
2021/11/10 10:30:24;;;;;;;25.40;16.08;;;;;;;7.78;100.00;102407.53;5239889;28;20021;-70
2021/11/10 10:32:58;;;;;;;27.55;15.82;;;;;;;7.71;100.00;102405.28;5242310;28;20024;-68
2021/11/10 10:35:42;;;;;;;25.48;16.15;;;;;;;7.95;100.00;102409.31;5242347;28;20813;-70
2021/11/10 10:38:16;;;;;;;31.90;16.27;;;;;;;8.03;100.00;102409.81;5240977;28;20021;-70
2021/11/10 10:40:50;;;;;;;24.83;14.63;;;;;;;8.07;100.00;102407.03;5241742;28;20383;-69
2021/11/10 10:43:23;;;;;;;22.00;13.80;;;;;;;8.24;100.00;102410.50;5240939;28;20096;-70
2021/11/10 10:45:57;;;;;;;23.13;14.13;;;;;;;8.24;100.00;102397.44;5242830;28;20437;-69
2021/11/10 10:48:29;;;;;;;28.77;15.50;;;;;;;8.42;100.00;102387.88;5240452;28;20082;-69
2021/11/10 10:51:03;;;;;;;23.85;15.27;;;;;;;8.52;100.00;102403.91;5241895;28;20025;-69
2021/11/10 10:53:43;;;;;;;25.33;14.73;;;;;;;8.63;100.00;102405.97;5241898;28;20045;-69
2021/11/10 10:56:16;;;;;;;24.08;13.88;;;;;;;8.71;100.00;102398.56;5240134;28;20112;-69
2021/11/10 10:58:55;;;;;;;24.02;14.07;;;;;;;8.76;100.00;102386.13;5241982;28;20056;-69
2021/11/10 11:01:32;;;;;;;25.65;14.45;;;;;;;8.92;100.00;102380.94;5240977;28;20479;-69
2021/11/10 11:04:19;;;;;;;24.52;14.38;;;;;;;8.96;100.00;102378.06;5240414;28;20037;-69
2021/11/10 11:07:10;;;;;;;28.73;15.13;;;;;;;9.24;100.00;102377.44;5240858;28;20033;-69
2021/11/10 11:09:50;;;;;;;24.33;14.30;;;;;;;9.21;100.00;102371.53;5239070;28;20049;-69
2021/11/10 11:12:32;;;;;;;22.10;13.18;;;;;;;9.14;100.00;102373.63;5222958;28;20029;-69
2021/11/10 11:15:36;;;;;;;20.42;13.60;;;;;;;9.21;100.00;102367.13;5239960;28;20095;-69
2021/11/10 11:18:00;;;;;;;27.80;14.13;;;;;;;9.25;100.00;102370.44;5240956;28;20404;-69
2021/11/10 11:20:35;;;;;;;22.50;14.15;;;;;;;9.37;100.00;102366.28;5241925;28;20070;-68
2021/11/10 11:23:08;;;;;;;19.55;13.70;;;;;;;9.30;100.00;102357.94;5240931;28;20032;-69
2021/11/10 11:25:40;;;;;;;21.15;13.13;;;;;;;9.37;100.00;102351.44;5238059;28;20057;-69
2021/11/10 11:28:15;;;;;;;23.00;13.15;;;;;;;9.48;100.00;102343.00;5242518;28;20026;-69
2021/11/10 11:30:53;;;;;;;21.60;13.02;;;;;;;9.49;100.00;102353.34;5241283;28;20056;-69
2021/11/10 11:33:28;;;;;;;23.65;13.30;;;;;;;9.49;100.00;102355.13;5240729;28;20063;-70
2021/11/10 11:36:01;;;;;;;22.20;13.40;;;;;;;9.55;100.00;102351.34;5238911;28;20017;-69